Time;durP1;ratioP1;P1;durP2;ratioP2;P2;SDS_P1;SDS_P2;PMS_P1;PMS_P2;Temp;Humidity;BMP_temperature;BMP_pressure;BME280_temperature;BME280_humidity;BME280_pressure;Samples;Min_cycle;Max_cycle;Signal;HPM_P1;HPM_P2
2022/10/31 00:00:15;;;;;;;14.80;9.70;;;13.50;37.30;;;;;;4999151;28;20487;-61
2022/10/31 00:02:43;;;;;;;13.73;8.50;;;13.40;37.50;;;;;;5000844;28;20466;-61
2022/10/31 00:05:10;;;;;;;16.57;9.50;;;13.50;37.90;;;;;;5005580;28;20466;-61
2022/10/31 00:07:37;;;;;;;13.70;10.13;;;13.50;38.10;;;;;;5010785;28;20483;-60
2022/10/31 00:10:04;;;;;;;15.40;9.17;;;13.50;38.10;;;;;;5004918;28;20458;-61
2022/10/31 00:12:31;;;;;;;18.90;10.70;;;13.50;38.80;;;;;;5008169;28;21023;-61
2022/10/31 00:14:58;;;;;;;15.87;10.20;;;13.60;39.00;;;;;;5006017;28;20799;-60
2022/10/31 00:17:25;;;;;;;15.90;9.30;;;13.60;39.00;;;;;;5006598;28;20483;-60
2022/10/31 00:19:53;;;;;;;14.63;10.10;;;13.60;39.40;;;;;;5007848;28;21153;-61
2022/10/31 00:22:19;;;;;;;19.70;10.37;;;13.60;39.30;;;;;;5006394;28;20464;-61
2022/10/31 00:24:46;;;;;;;18.03;10.17;;;13.60;39.60;;;;;;5009043;28;20466;-60
2022/10/31 00:27:13;;;;;;;17.83;10.97;;;13.60;39.70;;;;;;5009604;28;20488;-61
2022/10/31 00:29:40;;;;;;;17.83;11.33;;;13.60;39.80;;;;;;4998830;28;20471;-61
2022/10/31 00:32:06;;;;;;;19.17;13.00;;;13.60;39.80;;;;;;5006880;28;20456;-60
2022/10/31 00:34:33;;;;;;;17.20;11.83;;;13.50;39.70;;;;;;4996126;28;21199;-61
2022/10/31 00:37:01;;;;;;;15.90;10.50;;;13.50;39.70;;;;;;5006527;28;20706;-60
2022/10/31 00:39:28;;;;;;;13.30;9.03;;;13.50;39.90;;;;;;4995621;28;20456;-61
2022/10/31 00:41:55;;;;;;;16.33;9.50;;;13.40;39.50;;;;;;5002411;28;20484;-61
2022/10/31 00:44:21;;;;;;;16.90;10.67;;;13.30;39.20;;;;;;5003194;28;20464;-60
2022/10/31 00:46:48;;;;;;;14.20;9.43;;;13.30;39.10;;;;;;5004874;28;20873;-61
2022/10/31 00:49:15;;;;;;;17.17;8.50;;;13.20;38.80;;;;;;5004194;28;20696;-60
2022/10/31 00:51:42;;;;;;;17.97;9.00;;;13.20;38.60;;;;;;5002243;28;20460;-60
2022/10/31 00:54:10;;;;;;;14.37;8.43;;;13.10;38.20;;;;;;4999692;28;20555;-60
2022/10/31 00:56:37;;;;;;;17.00;8.53;;;13.00;38.10;;;;;;5003361;28;20488;-60
2022/10/31 00:59:04;;;;;;;13.20;7.80;;;12.90;37.90;;;;;;5002898;28;20467;-60
2022/10/31 01:01:31;;;;;;;16.53;9.53;;;12.90;37.70;;;;;;5001515;28;20468;-60
2022/10/31 01:03:58;;;;;;;16.93;9.97;;;12.90;37.70;;;;;;5003682;28;20949;-60
2022/10/31 01:06:24;;;;;;;22.07;10.03;;;12.80;37.60;;;;;;5002911;28;20466;-60
2022/10/31 01:08:51;;;;;;;16.40;9.50;;;12.80;37.90;;;;;;5003340;28;20535;-61
2022/10/31 01:11:21;;;;;;;14.43;9.37;;;12.80;38.00;;;;;;5004928;28;20987;-60
2022/10/31 01:13:50;;;;;;;22.47;8.70;;;12.70;38.10;;;;;;5006510;28;20622;-60
2022/10/31 01:16:19;;;;;;;13.40;8.77;;;12.70;38.30;;;;;;4999084;28;20510;-60
2022/10/31 01:18:46;;;;;;;13.77;8.77;;;12.60;38.40;;;;;;4999254;28;20475;-61
2022/10/31 01:21:15;;;;;;;16.10;9.50;;;12.60;38.30;;;;;;4996872;28;20480;-60
2022/10/31 01:23:42;;;;;;;13.90;9.63;;;12.60;38.50;;;;;;5004255;28;20482;-60
2022/10/31 01:26:11;;;;;;;17.27;9.77;;;12.50;38.80;;;;;;5006335;28;20456;-60
2022/10/31 01:28:44;;;;;;;14.47;7.80;;;12.50;38.60;;;;;;4997302;28;20582;-60
2022/10/31 01:31:11;;;;;;;14.80;8.93;;;12.50;38.70;;;;;;4997245;28;20584;-60
2022/10/31 01:33:39;;;;;;;16.57;9.00;;;12.50;38.80;;;;;;5002691;28;20460;-61
2022/10/31 01:36:14;;;;;;;13.87;7.97;;;12.50;38.50;;;;;;5007229;28;20471;-60
2022/10/31 01:38:41;;;;;;;14.50;10.00;;;12.40;38.50;;;;;;5006592;28;20991;-61
2022/10/31 01:41:08;;;;;;;14.57;9.43;;;12.40;38.30;;;;;;4997542;28;20545;-60
2022/10/31 01:43:49;;;;;;;14.90;10.13;;;12.40;38.30;;;;;;4999289;28;20464;-60
2022/10/31 01:46:18;;;;;;;18.10;11.10;;;12.30;38.70;;;;;;5002127;28;20459;-60
2022/10/31 01:48:45;;;;;;;15.37;10.17;;;12.30;38.90;;;;;;5000176;28;20488;-60
2022/10/31 01:51:15;;;;;;;14.53;10.83;;;12.40;39.00;;;;;;5005905;28;20563;-61
2022/10/31 01:53:43;;;;;;;15.10;9.87;;;12.30;39.30;;;;;;5005308;28;20713;-60
2022/10/31 01:56:10;;;;;;;19.60;10.90;;;12.30;39.20;;;;;;4997580;28;20478;-60
2022/10/31 01:58:37;;;;;;;18.93;10.60;;;12.30;39.40;;;;;;5000648;28;21080;-60
2022/10/31 02:01:05;;;;;;;18.33;12.37;;;12.40;39.30;;;;;;4998711;28;20476;-60
2022/10/31 02:03:33;;;;;;;22.90;10.43;;;12.40;39.60;;;;;;4998638;28;20495;-61
2022/10/31 02:06:00;;;;;;;20.93;12.20;;;12.40;39.60;;;;;;5004522;28;21158;-60
2022/10/31 02:08:29;;;;;;;15.17;11.23;;;12.40;39.80;;;;;;5005506;28;20483;-61
2022/10/31 02:10:58;;;;;;;19.30;10.87;;;12.40;40.10;;;;;;4996019;28;20519;-61
2022/10/31 02:13:26;;;;;;;16.57;11.77;;;12.40;40.20;;;;;;5000511;28;20828;-61
2022/10/31 02:15:55;;;;;;;21.63;11.73;;;12.50;40.10;;;;;;5003329;28;20467;-60
2022/10/31 02:18:25;;;;;;;20.53;12.20;;;12.50;40.10;;;;;;4997005;28;20489;-60
2022/10/31 02:20:59;;;;;;;17.47;10.83;;;12.50;40.10;;;;;;5003449;28;20487;-61
2022/10/31 02:24:08;;;;;;;18.03;11.87;;;12.50;40.00;;;;;;5006026;28;20467;-61
2022/10/31 02:27:02;;;;;;;22.27;13.30;;;12.50;40.40;;;;;;5003408;28;20688;-61
2022/10/31 02:30:06;;;;;;;25.10;12.20;;;12.50;40.40;;;;;;5005972;28;20470;-61
2022/10/31 02:32:49;;;;;;;18.93;12.07;;;12.50;40.60;;;;;;5002628;28;20472;-61
2022/10/31 02:35:29;;;;;;;17.90;11.90;;;12.50;41.20;;;;;;5003280;28;20459;-61
2022/10/31 02:38:03;;;;;;;19.43;11.60;;;12.50;40.20;;;;;;5001092;28;20479;-60
2022/10/31 02:40:37;;;;;;;15.33;10.03;;;12.50;40.00;;;;;;5004576;28;20475;-60
2022/10/31 02:43:10;;;;;;;14.77;9.83;;;12.40;39.60;;;;;;5000422;28;20458;-61
2022/10/31 02:45:42;;;;;;;14.73;9.63;;;12.30;38.60;;;;;;5004597;28;20979;-60
2022/10/31 02:48:15;;;;;;;16.07;10.23;;;12.30;38.60;;;;;;4997289;28;20506;-64
2022/10/31 02:50:46;;;;;;;15.73;9.97;;;12.20;38.50;;;;;;5003894;28;20455;-60
2022/10/31 02:53:16;;;;;;;18.30;9.90;;;12.20;38.40;;;;;;4991584;28;20537;-60
2022/10/31 02:56:09;;;;;;;18.27;9.47;;;12.10;38.20;;;;;;5003090;28;20596;-60
2022/10/31 02:58:40;;;;;;;17.57;9.40;;;12.10;38.40;;;;;;4982426;28;20506;-61
2022/10/31 03:01:46;;;;;;;15.10;10.23;;;12.00;38.20;;;;;;4998580;28;20480;-60
2022/10/31 03:04:33;;;;;;;16.03;10.27;;;12.00;38.40;;;;;;4997596;28;20479;-61
2022/10/31 03:07:07;;;;;;;15.10;10.50;;;12.00;38.50;;;;;;4998145;28;20471;-61
2022/10/31 03:09:42;;;;;;;17.50;10.90;;;11.90;38.60;;;;;;5003201;28;20895;-60
2022/10/31 03:12:14;;;;;;;16.93;10.67;;;11.90;38.60;;;;;;5003159;28;20455;-61
2022/10/31 03:14:44;;;;;;;19.57;12.00;;;11.90;38.70;;;;;;5004364;28;20455;-60
2022/10/31 03:17:21;;;;;;;15.77;11.23;;;11.90;39.00;;;;;;4999625;28;20480;-60
2022/10/31 03:19:53;;;;;;;17.40;11.37;;;11.90;39.00;;;;;;5002634;28;20463;-61
2022/10/31 03:22:23;;;;;;;16.53;10.80;;;11.90;39.00;;;;;;4995417;28;20475;-61
2022/10/31 03:24:53;;;;;;;18.10;11.00;;;12.00;39.00;;;;;;4990970;28;20528;-60
2022/10/31 03:27:23;;;;;;;18.33;11.73;;;11.90;39.10;;;;;;4997205;28;20482;-61
2022/10/31 03:29:52;;;;;;;22.20;13.00;;;11.90;39.10;;;;;;4993431;28;20575;-61
2022/10/31 03:32:23;;;;;;;21.47;12.77;;;11.90;39.20;;;;;;5000558;28;20472;-60
2022/10/31 03:34:55;;;;;;;21.17;12.80;;;11.90;39.40;;;;;;5001953;28;20996;-60
2022/10/31 03:37:25;;;;;;;15.10;11.17;;;12.00;39.40;;;;;;5004662;28;20476;-60
2022/10/31 03:39:52;;;;;;;19.60;11.90;;;11.90;39.30;;;;;;5009673;28;20485;-61
2022/10/31 03:42:24;;;;;;;22.17;11.23;;;11.90;39.40;;;;;;5003796;28;20480;-60
2022/10/31 03:44:56;;;;;;;17.17;11.13;;;11.80;39.40;;;;;;5006118;28;20470;-60
2022/10/31 03:47:23;;;;;;;18.90;11.90;;;11.80;39.40;;;;;;5002501;28;20505;-60
2022/10/31 03:49:52;;;;;;;15.70;10.90;;;11.80;39.20;;;;;;5002138;28;20463;-60
2022/10/31 03:52:27;;;;;;;18.43;12.00;;;11.80;39.10;;;;;;4999477;28;20899;-61
2022/10/31 03:54:57;;;;;;;15.87;10.83;;;11.80;39.30;;;;;;5003151;28;20466;-60
2022/10/31 03:57:28;;;;;;;17.40;12.00;;;11.80;39.00;;;;;;5004140;28;20489;-61
2022/10/31 03:59:59;;;;;;;18.60;11.10;;;11.80;38.90;;;;;;5009458;28;20840;-60
2022/10/31 04:02:31;;;;;;;16.00;10.90;;;11.80;38.80;;;;;;5007876;28;20471;-60
2022/10/31 04:05:00;;;;;;;18.73;12.07;;;11.80;38.80;;;;;;5005748;28;20464;-61
2022/10/31 04:07:30;;;;;;;14.07;10.10;;;11.70;38.70;;;;;;5006732;28;20480;-60
2022/10/31 04:09:59;;;;;;;16.40;9.63;;;11.70;38.60;;;;;;5009606;28;20462;-60
2022/10/31 04:12:28;;;;;;;13.57;10.00;;;11.70;38.30;;;;;;5009531;28;20471;-60
2022/10/31 04:14:56;;;;;;;15.27;10.00;;;11.70;38.20;;;;;;5009327;28;20463;-61
2022/10/31 04:17:24;;;;;;;14.93;10.20;;;11.70;38.10;;;;;;5007131;28;20476;-61
2022/10/31 04:19:51;;;;;;;12.97;8.80;;;11.70;38.10;;;;;;5004993;28;20470;-61
2022/10/31 04:22:19;;;;;;;13.00;9.27;;;11.60;37.90;;;;;;5005276;28;20484;-61
2022/10/31 04:24:46;;;;;;;13.50;8.30;;;11.60;37.70;;;;;;5009220;28;20467;-61
2022/10/31 04:27:12;;;;;;;12.97;8.00;;;11.50;37.70;;;;;;5005330;28;20491;-60
2022/10/31 04:29:39;;;;;;;14.30;8.20;;;11.50;37.70;;;;;;5008583;28;20480;-60
2022/10/31 04:32:06;;;;;;;13.00;8.40;;;11.40;37.70;;;;;;5009543;28;20471;-60
2022/10/31 04:34:33;;;;;;;13.93;9.03;;;11.40;37.50;;;;;;5006001;28;20471;-60
2022/10/31 04:36:59;;;;;;;16.20;10.10;;;11.40;37.60;;;;;;5008249;28;20484;-60
2022/10/31 04:39:27;;;;;;;14.03;9.50;;;11.40;37.80;;;;;;5009343;28;20470;-60
2022/10/31 04:41:54;;;;;;;17.47;9.33;;;11.30;37.80;;;;;;5003385;28;20475;-60
2022/10/31 04:44:21;;;;;;;15.53;10.40;;;11.30;38.10;;;;;;5006115;28;20463;-61
2022/10/31 04:46:48;;;;;;;15.13;10.27;;;11.30;38.30;;;;;;5010281;28;20455;-60
2022/10/31 04:49:15;;;;;;;28.13;12.00;;;11.30;38.30;;;;;;5009004;28;20463;-61
2022/10/31 04:51:41;;;;;;;25.10;11.70;;;11.30;38.30;;;;;;5010153;28;20460;-61
2022/10/31 04:54:08;;;;;;;20.83;11.97;;;11.30;38.40;;;;;;5009192;28;20456;-60
2022/10/31 04:56:36;;;;;;;21.73;11.87;;;11.30;38.50;;;;;;5010406;28;20835;-64
2022/10/31 04:59:03;;;;;;;17.97;11.90;;;11.30;38.60;;;;;;5004084;28;21098;-60
2022/10/31 05:01:30;;;;;;;21.80;10.70;;;11.30;38.70;;;;;;5009963;28;20511;-60
2022/10/31 05:03:57;;;;;;;20.60;12.70;;;11.30;38.70;;;;;;5008141;28;20460;-60
2022/10/31 05:06:23;;;;;;;14.07;9.73;;;11.30;38.50;;;;;;5010256;28;20471;-60
2022/10/31 05:08:50;;;;;;;13.63;8.83;;;11.30;38.40;;;;;;5004493;28;20540;-60
2022/10/31 05:11:17;;;;;;;11.50;7.43;;;11.30;38.40;;;;;;5009467;28;20467;-60
2022/10/31 05:13:45;;;;;;;13.43;8.77;;;11.20;38.30;;;;;;5007764;28;20460;-60
2022/10/31 05:16:12;;;;;;;13.37;7.77;;;11.20;38.20;;;;;;5010854;28;20460;-60
2022/10/31 05:18:38;;;;;;;11.73;7.30;;;11.20;38.20;;;;;;5007629;28;20491;-60
2022/10/31 05:21:05;;;;;;;13.37;8.40;;;11.10;38.10;;;;;;5009794;28;20477;-61
2022/10/31 05:23:32;;;;;;;16.20;9.93;;;11.10;38.00;;;;;;5006226;28;20493;-61
2022/10/31 05:25:59;;;;;;;13.67;8.10;;;11.10;38.00;;;;;;5008460;28;20471;-61
2022/10/31 05:28:26;;;;;;;15.10;8.70;;;11.10;37.90;;;;;;5004726;28;20510;-60
2022/10/31 05:30:54;;;;;;;18.13;9.47;;;11.00;38.00;;;;;;5010262;28;20492;-61
2022/10/31 05:33:58;;;;;;;12.80;8.23;;;11.00;37.90;;;;;;5003006;28;20464;-60
2022/10/31 05:36:25;;;;;;;14.13;8.50;;;11.00;38.20;;;;;;5007973;28;20556;-60
2022/10/31 05:38:52;;;;;;;15.57;8.97;;;10.90;38.10;;;;;;5004949;28;21026;-60
2022/10/31 05:41:18;;;;;;;14.90;8.70;;;10.90;38.10;;;;;;5002774;28;20457;-60
2022/10/31 05:43:46;;;;;;;17.87;9.60;;;10.90;38.20;;;;;;5001988;28;20495;-60
2022/10/31 05:46:14;;;;;;;14.33;8.23;;;10.80;38.30;;;;;;5005998;28;20467;-60
2022/10/31 05:48:41;;;;;;;18.93;9.53;;;10.80;38.50;;;;;;5004917;28;20491;-60
2022/10/31 05:51:07;;;;;;;18.33;8.53;;;10.80;38.50;;;;;;5000957;28;20990;-60
2022/10/31 05:53:34;;;;;;;14.20;8.60;;;10.80;38.70;;;;;;5003713;28;20461;-60
2022/10/31 05:56:01;;;;;;;18.30;8.90;;;10.80;38.70;;;;;;5007524;28;20464;-60
2022/10/31 05:58:28;;;;;;;13.93;9.10;;;10.80;38.60;;;;;;5006852;28;20555;-60
2022/10/31 06:00:55;;;;;;;13.80;9.03;;;10.80;38.60;;;;;;5008612;28;20467;-60
2022/10/31 06:03:23;;;;;;;18.10;9.50;;;10.80;38.70;;;;;;5004235;28;20979;-60
2022/10/31 06:05:50;;;;;;;23.10;10.40;;;10.80;38.70;;;;;;5008345;28;20464;-60
2022/10/31 06:08:17;;;;;;;13.50;8.37;;;10.80;38.80;;;;;;5006874;28;20484;-60
2022/10/31 06:10:43;;;;;;;15.07;9.33;;;10.80;38.80;;;;;;5009928;28;20460;-61
2022/10/31 06:13:11;;;;;;;14.50;10.20;;;10.90;39.00;;;;;;5005507;28;20455;-61
2022/10/31 06:15:38;;;;;;;15.00;9.77;;;11.00;39.00;;;;;;5007857;28;20464;-60
2022/10/31 06:18:06;;;;;;;14.00;9.70;;;11.00;39.00;;;;;;5003871;28;20487;-60
2022/10/31 06:20:35;;;;;;;11.67;8.60;;;11.10;39.20;;;;;;5007088;28;20455;-61
2022/10/31 06:23:02;;;;;;;14.63;8.20;;;11.20;39.30;;;;;;5003419;28;20484;-60
2022/10/31 06:25:29;;;;;;;15.73;8.90;;;11.30;39.20;;;;;;5002189;28;21051;-60
2022/10/31 06:27:56;;;;;;;13.93;9.60;;;11.40;39.30;;;;;;5006266;28;20487;-61
2022/10/31 06:30:23;;;;;;;17.10;9.33;;;11.50;39.10;;;;;;5000605;28;20471;-61
2022/10/31 06:32:50;;;;;;;10.53;8.37;;;11.60;38.70;;;;;;5007973;28;20814;-61
2022/10/31 06:35:17;;;;;;;20.43;8.37;;;11.70;38.80;;;;;;5003166;28;20918;-61
2022/10/31 06:37:52;;;;;;;11.43;8.50;;;11.80;38.50;;;;;;5007335;28;20483;-61
2022/10/31 06:40:19;;;;;;;9.27;6.50;;;12.00;38.10;;;;;;5004176;28;20474;-60
2022/10/31 06:42:45;;;;;;;11.67;7.80;;;12.10;37.90;;;;;;4999921;28;20484;-61
2022/10/31 06:45:12;;;;;;;10.17;7.03;;;12.30;37.60;;;;;;5005917;28;20455;-61
2022/10/31 06:54:35;;;;;;;13.50;8.80;;;13.50;35.20;;;;;;5004175;28;20675;-61
2022/10/31 06:57:01;;;;;;;14.60;8.90;;;14.20;33.50;;;;;;5000603;28;21008;-61
2022/10/31 06:59:28;;;;;;;11.70;8.53;;;14.70;31.60;;;;;;5002949;28;20472;-61
2022/10/31 07:01:55;;;;;;;12.67;8.63;;;15.20;30.20;;;;;;5005231;28;20500;-61
2022/10/31 07:04:22;;;;;;;14.23;8.77;;;15.60;28.00;;;;;;5003966;28;20480;-61
2022/10/31 07:06:51;;;;;;;11.73;8.33;;;16.00;26.70;;;;;;5002075;28;20460;-61
2022/10/31 07:09:18;;;;;;;11.17;8.03;;;16.30;25.40;;;;;;5006093;28;20475;-61
2022/10/31 07:11:46;;;;;;;10.70;8.10;;;16.60;24.90;;;;;;4999300;28;20467;-61
2022/10/31 07:14:13;;;;;;;12.10;8.77;;;16.70;23.60;;;;;;4997662;28;20475;-61
2022/10/31 07:16:39;;;;;;;10.97;8.87;;;16.90;22.90;;;;;;4999062;28;20479;-62
2022/10/31 07:19:06;;;;;;;8.63;7.37;;;17.00;22.90;;;;;;5004327;28;20455;-61
2022/10/31 07:21:33;;;;;;;9.90;7.30;;;17.00;22.00;;;;;;5004821;28;20610;-61
2022/10/31 07:23:59;;;;;;;8.80;7.40;;;17.10;22.10;;;;;;5005135;28;20864;-61
2022/10/31 07:26:27;;;;;;;9.03;7.47;;;17.30;21.90;;;;;;5003498;28;20477;-61
2022/10/31 07:28:55;;;;;;;7.63;6.60;;;17.40;21.50;;;;;;5000276;28;20562;-61
2022/10/31 07:31:24;;;;;;;7.40;6.30;;;17.40;21.30;;;;;;4999411;28;20486;-61
2022/10/31 07:33:51;;;;;;;7.70;6.83;;;17.50;21.40;;;;;;5000727;28;20459;-61
2022/10/31 07:36:18;;;;;;;10.23;7.10;;;17.90;21.80;;;;;;4997377;28;20472;-61
2022/10/31 07:38:44;;;;;;;8.40;7.40;;;18.30;21.20;;;;;;5002529;28;21019;-61
2022/10/31 07:41:11;;;;;;;11.63;7.50;;;18.70;19.90;;;;;;5006845;28;20471;-61
2022/10/31 07:43:38;;;;;;;10.50;7.17;;;18.80;18.70;;;;;;4999904;28;20563;-63
2022/10/31 07:46:06;;;;;;;8.47;7.40;;;18.90;18.70;;;;;;5006981;28;20467;-63
2022/10/31 07:48:33;;;;;;;10.00;6.33;;;19.10;19.10;;;;;;4998258;28;20492;-62
2022/10/31 07:51:00;;;;;;;10.03;6.80;;;19.40;17.90;;;;;;4998060;28;20491;-62
2022/10/31 07:53:26;;;;;;;10.80;7.63;;;19.50;17.40;;;;;;5003600;28;20456;-62
2022/10/31 07:55:53;;;;;;;9.40;6.47;;;19.60;16.60;;;;;;5002594;28;20468;-62
2022/10/31 07:58:20;;;;;;;10.73;6.77;;;19.60;16.60;;;;;;4999318;28;20480;-62
2022/10/31 08:00:48;;;;;;;9.27;7.37;;;19.60;16.80;;;;;;5003023;28;20466;-62
2022/10/31 08:03:17;;;;;;;11.90;7.03;;;19.60;16.70;;;;;;4999616;28;20483;-61
2022/10/31 08:05:45;;;;;;;11.53;7.30;;;19.90;16.40;;;;;;4990899;28;20948;-62
2022/10/31 08:08:13;;;;;;;10.00;7.60;;;20.10;15.80;;;;;;5001273;28;20582;-63
2022/10/31 08:10:40;;;;;;;11.43;6.87;;;20.20;15.70;;;;;;5005863;28;20464;-60
2022/10/31 08:13:09;;;;;;;8.97;7.20;;;20.20;15.30;;;;;;5000295;28;20855;-61
2022/10/31 08:15:39;;;;;;;10.17;5.90;;;20.30;15.20;;;;;;5006810;28;20458;-60
2022/10/31 08:18:06;;;;;;;8.43;6.33;;;20.60;14.90;;;;;;4999050;28;20488;-60
2022/10/31 08:20:34;;;;;;;8.93;5.73;;;21.00;14.30;;;;;;5007652;28;20461;-60
2022/10/31 08:23:02;;;;;;;8.60;5.33;;;21.30;13.30;;;;;;4998804;28;20483;-61
2022/10/31 08:25:31;;;;;;;8.77;6.30;;;21.70;13.10;;;;;;5007411;28;20467;-61
2022/10/31 08:27:58;;;;;;;10.63;7.23;;;21.80;12.30;;;;;;5005372;28;20487;-61
2022/10/31 08:30:27;;;;;;;8.20;5.90;;;21.90;12.00;;;;;;5004871;28;20464;-61
2022/10/31 08:33:02;;;;;;;14.63;6.60;;;22.10;11.70;;;;;;5009669;28;20464;-61
2022/10/31 08:35:29;;;;;;;9.70;5.97;;;22.60;11.50;;;;;;5001554;28;20491;-61
2022/10/31 08:37:58;;;;;;;11.27;6.63;;;23.10;10.50;;;;;;5007025;28;20492;-61
2022/10/31 08:40:26;;;;;;;9.23;5.67;;;23.50;10.20;;;;;;5005248;28;20460;-61
2022/10/31 08:43:00;;;;;;;9.50;6.30;;;24.00;10.20;;;;;;5006998;28;20479;-61
2022/10/31 08:45:27;;;;;;;10.70;6.17;;;24.20;8.10;;;;;;5008149;28;20502;-62
2022/10/31 08:47:58;;;;;;;10.40;6.90;;;24.20;8.00;;;;;;5005933;28;20494;-62
2022/10/31 08:50:25;;;;;;;8.40;5.90;;;24.40;7.80;;;;;;5004324;28;20518;-62
2022/10/31 08:52:51;;;;;;;11.23;6.77;;;24.60;7.80;;;;;;5009051;28;20979;-62
2022/10/31 08:55:20;;;;;;;8.80;6.30;;;24.80;7.10;;;;;;5008125;28;20471;-62
2022/10/31 08:57:46;;;;;;;13.87;8.10;;;25.50;6.50;;;;;;4999946;28;20488;-62
2022/10/31 09:00:14;;;;;;;10.40;6.60;;;26.10;5.20;;;;;;5006631;28;20460;-62
2022/10/31 09:02:41;;;;;;;8.10;5.63;;;26.60;4.80;;;;;;5008612;28;20467;-62
2022/10/31 09:05:08;;;;;;;9.23;6.50;;;26.90;4.40;;;;;;5008038;28;20452;-61
2022/10/31 09:07:35;;;;;;;14.13;5.97;;;26.90;3.70;;;;;;5002103;28;20491;-62
2022/10/31 09:10:02;;;;;;;9.50;5.97;;;26.60;4.10;;;;;;5010020;28;20495;-61
2022/10/31 09:12:30;;;;;;;10.00;6.27;;;26.30;4.90;;;;;;5007341;28;20464;-61
2022/10/31 09:14:56;;;;;;;11.83;6.60;;;25.70;5.20;;;;;;5004454;28;20471;-61
2022/10/31 09:17:23;;;;;;;11.10;7.13;;;25.10;6.30;;;;;;5001750;28;20491;-61
2022/10/31 09:19:50;;;;;;;11.10;6.60;;;24.90;7.50;;;;;;5006109;28;20971;-61
2022/10/31 09:22:17;;;;;;;10.87;6.73;;;24.90;7.80;;;;;;5003862;28;20468;-61
2022/10/31 09:24:44;;;;;;;12.40;7.10;;;24.80;7.90;;;;;;5007467;28;20479;-61
2022/10/31 09:27:10;;;;;;;10.20;6.10;;;24.90;8.50;;;;;;5006833;28;21225;-61
2022/10/31 09:29:38;;;;;;;12.47;7.73;;;25.00;7.90;;;;;;5003467;28;20456;-61
2022/10/31 09:32:05;;;;;;;12.83;7.97;;;24.90;8.00;;;;;;5004608;28;20476;-61
2022/10/31 09:34:32;;;;;;;13.27;8.10;;;24.80;8.00;;;;;;5000767;28;20459;-62
2022/10/31 09:36:59;;;;;;;9.67;7.47;;;24.60;8.50;;;;;;5007465;28;20486;-62
2022/10/31 09:39:26;;;;;;;11.57;8.07;;;24.60;9.00;;;;;;5008306;28;20474;-62
2022/10/31 09:42:05;;;;;;;9.43;7.60;;;24.70;9.00;;;;;;5007180;28;20472;-62
2022/10/31 09:44:45;;;;;;;11.27;7.43;;;24.90;9.20;;;;;;5005320;28;20525;-62
2022/10/31 09:47:18;;;;;;;12.70;8.80;;;24.70;8.90;;;;;;4999136;28;20495;-62
2022/10/31 09:50:02;;;;;;;10.40;7.83;;;24.40;9.60;;;;;;5004683;28;21003;-62
2022/10/31 09:52:32;;;;;;;9.73;7.40;;;24.10;10.00;;;;;;5008615;28;20491;-62
2022/10/31 09:55:03;;;;;;;11.10;8.57;;;23.90;10.60;;;;;;4999558;28;20448;-64
2022/10/31 09:57:34;;;;;;;9.83;7.90;;;23.70;11.10;;;;;;5006167;28;20683;-63
2022/10/31 10:00:05;;;;;;;12.30;9.13;;;23.50;11.60;;;;;;5003308;28;20456;-62
2022/10/31 10:02:38;;;;;;;12.13;8.97;;;23.30;12.10;;;;;;5002646;28;20476;-62
2022/10/31 10:05:07;;;;;;;13.23;10.00;;;23.10;12.60;;;;;;5002399;28;20490;-62
2022/10/31 10:07:42;;;;;;;13.23;9.57;;;22.90;13.10;;;;;;4999872;28;20487;-62
2022/10/31 10:10:16;;;;;;;12.47;9.37;;;22.60;13.30;;;;;;5003537;28;20478;-62
2022/10/31 10:13:00;;;;;;;13.93;9.67;;;22.40;14.00;;;;;;5005120;28;20460;-62
2022/10/31 10:15:37;;;;;;;14.60;8.50;;;22.20;14.50;;;;;;5002223;28;20465;-62
2022/10/31 10:18:14;;;;;;;12.40;8.43;;;22.10;14.90;;;;;;5001260;28;20857;-62
2022/10/31 10:20:48;;;;;;;11.37;8.80;;;22.10;15.10;;;;;;5003105;28;20475;-62
2022/10/31 10:23:33;;;;;;;9.40;7.50;;;22.10;15.30;;;;;;5000984;28;20460;-62
2022/10/31 10:26:08;;;;;;;10.20;7.33;;;22.20;15.10;;;;;;5002583;28;20464;-62
2022/10/31 10:28:39;;;;;;;10.57;8.93;;;22.30;15.00;;;;;;5005499;28;20486;-62
2022/10/31 10:31:12;;;;;;;13.77;10.17;;;22.40;15.00;;;;;;5004450;28;20495;-62
2022/10/31 10:33:43;;;;;;;13.03;8.90;;;22.50;14.70;;;;;;5000378;28;20487;-62
2022/10/31 10:36:14;;;;;;;13.10;9.33;;;22.50;14.60;;;;;;5003163;28;20459;-62
2022/10/31 10:38:51;;;;;;;13.27;9.20;;;22.40;14.70;;;;;;5005205;28;20482;-62
2022/10/31 10:41:20;;;;;;;12.57;9.10;;;22.30;14.90;;;;;;4996169;28;20455;-62
2022/10/31 10:43:49;;;;;;;12.60;10.03;;;22.20;15.10;;;;;;5002540;28;20476;-62
2022/10/31 10:49:16;;;;;;;12.10;9.27;;;21.80;15.60;;;;;;5003048;28;20469;-62
2022/10/31 10:51:47;;;;;;;13.43;9.80;;;21.60;15.90;;;;;;5002424;28;20872;-62
2022/10/31 10:54:39;;;;;;;17.33;11.07;;;21.50;16.80;;;;;;5007022;28;20459;-62
2022/10/31 10:57:17;;;;;;;14.57;10.53;;;21.40;16.70;;;;;;5002870;28;20515;-62
2022/10/31 10:59:44;;;;;;;13.13;11.73;;;21.30;17.10;;;;;;5000757;28;21061;-62
2022/10/31 11:02:18;;;;;;;14.20;11.87;;;21.30;17.50;;;;;;5006072;28;20478;-62
2022/10/31 11:04:48;;;;;;;17.00;13.17;;;21.30;17.70;;;;;;5001665;28;20486;-62
2022/10/31 11:07:15;;;;;;;16.53;12.10;;;21.30;17.70;;;;;;5004329;28;20487;-62
2022/10/31 11:09:42;;;;;;;17.83;12.87;;;21.30;17.80;;;;;;5006803;28;20464;-62
2022/10/31 11:12:11;;;;;;;22.30;20.07;;;21.40;17.90;;;;;;5002229;28;20991;-62
2022/10/31 11:14:46;;;;;;;18.37;15.77;;;21.50;18.00;;;;;;5001919;28;20968;-63
2022/10/31 11:17:26;;;;;;;18.87;14.37;;;21.60;17.90;;;;;;4998953;28;20853;-62
2022/10/31 11:20:05;;;;;;;18.27;14.33;;;21.60;17.50;;;;;;5002174;28;20460;-62
2022/10/31 11:22:32;;;;;;;20.63;16.07;;;21.50;17.20;;;;;;5004205;28;20995;-62
2022/10/31 11:24:59;;;;;;;20.03;15.57;;;21.40;17.10;;;;;;5003293;28;20489;-62
2022/10/31 11:27:27;;;;;;;18.33;15.50;;;21.20;17.60;;;;;;5004750;28;21007;-62
2022/10/31 11:30:04;;;;;;;20.20;15.20;;;21.10;18.10;;;;;;5004710;28;20478;-62
2022/10/31 11:32:32;;;;;;;19.00;14.80;;;21.50;19.20;;;;;;4999885;28;20498;-62
2022/10/31 11:35:02;;;;;;;19.80;15.00;;;22.20;17.90;;;;;;5000591;28;21065;-62
2022/10/31 11:37:31;;;;;;;16.83;12.87;;;22.80;16.50;;;;;;5009335;28;20479;-62
2022/10/31 11:40:00;;;;;;;19.50;12.80;;;23.30;15.40;;;;;;5006074;28;20460;-62
2022/10/31 11:42:30;;;;;;;17.70;14.17;;;23.70;14.40;;;;;;5003433;28;20460;-63
2022/10/31 11:44:57;;;;;;;18.00;14.17;;;24.00;13.50;;;;;;5004993;28;20847;-62
2022/10/31 11:47:28;;;;;;;17.70;13.40;;;24.20;13.20;;;;;;5004856;28;20487;-63
2022/10/31 11:49:58;;;;;;;17.37;13.97;;;24.50;13.00;;;;;;5005357;28;20464;-62
2022/10/31 11:52:28;;;;;;;16.33;13.67;;;25.00;12.20;;;;;;4999492;28;20613;-63
2022/10/31 11:54:58;;;;;;;15.47;11.60;;;25.60;11.10;;;;;;5002373;28;20455;-63
2022/10/31 11:57:27;;;;;;;16.07;11.77;;;26.20;10.10;;;;;;5006298;28;20487;-63
2022/10/31 11:59:56;;;;;;;15.43;11.40;;;26.60;9.00;;;;;;5006447;28;20456;-63
2022/10/31 12:02:23;;;;;;;13.73;10.03;;;27.00;8.20;;;;;;5009005;28;20468;-62
2022/10/31 12:04:57;;;;;;;17.30;11.23;;;27.30;7.70;;;;;;5009346;28;20896;-62
2022/10/31 12:07:25;;;;;;;14.03;11.00;;;27.50;6.90;;;;;;5009725;28;20493;-62
2022/10/31 12:09:52;;;;;;;14.43;10.33;;;27.30;5.90;;;;;;4996186;28;20460;-63
2022/10/31 12:12:45;;;;;;;15.93;11.33;;;27.30;6.80;;;;;;5009527;28;20460;-63
2022/10/31 12:15:28;;;;;;;14.70;10.30;;;27.40;6.80;;;;;;5005701;28;20451;-63
2022/10/31 12:18:02;;;;;;;14.97;9.63;;;27.40;6.10;;;;;;5004624;28;20479;-63
2022/10/31 12:20:41;;;;;;;19.43;10.57;;;27.30;6.20;;;;;;5004935;28;20463;-63
2022/10/31 12:23:33;;;;;;;16.30;9.70;;;27.10;6.40;;;;;;5001331;28;20456;-63
2022/10/31 12:26:13;;;;;;;13.37;9.53;;;26.80;6.40;;;;;;5001526;28;20483;-63
2022/10/31 12:29:03;;;;;;;14.13;8.93;;;26.40;7.50;;;;;;5007714;28;20485;-63
2022/10/31 12:31:41;;;;;;;14.87;9.83;;;26.30;7.90;;;;;;5007679;28;20475;-63
2022/10/31 12:34:41;;;;;;;16.77;9.10;;;26.10;8.30;;;;;;5004437;28;20543;-63
2022/10/31 12:37:14;;;;;;;21.30;8.97;;;25.70;8.40;;;;;;5008610;28;20864;-62
2022/10/31 12:39:50;;;;;;;11.33;8.83;;;25.20;9.20;;;;;;5004217;28;21071;-62
2022/10/31 12:42:29;;;;;;;13.63;9.23;;;24.80;9.90;;;;;;5002934;28;20451;-62
2022/10/31 12:45:18;;;;;;;16.03;9.33;;;24.30;10.80;;;;;;5001765;28;20490;-62
2022/10/31 12:48:07;;;;;;;14.77;10.67;;;24.00;11.80;;;;;;5007539;28;20480;-63
2022/10/31 12:50:54;;;;;;;14.80;9.37;;;23.60;12.40;;;;;;5002470;28;20461;-63
2022/10/31 12:53:33;;;;;;;14.03;9.90;;;23.20;13.10;;;;;;5007925;28;20460;-63
2022/10/31 12:56:23;;;;;;;16.87;10.27;;;23.00;13.80;;;;;;5004084;28;20455;-62
2022/10/31 12:58:55;;;;;;;19.77;11.57;;;22.70;14.50;;;;;;5005191;28;20491;-62
2022/10/31 13:01:28;;;;;;;14.97;10.43;;;22.40;15.20;;;;;;4994486;28;20469;-62